Flight Track Log - Related Links

Times and Time Zones

All times are in EDT time to prevent confusion due to time zone crossing. See the DAL6197 flight status page for this flight to view local times or setup timezone preferences in your user account.

Time Position Orientation Groundspeed Altitude Reporting Facility
EDT Latitude Longitude Course Direction KTS MPH feet Rate Location/Type
11:44AM 42.9333 -78.7500 228° Southwest 157 181 1,600  Level Buffalo TRACON
11:46AM 42.9000 -78.8000 228° Southwest 183 211 3,800 1,985 Climbing Buffalo TRACON
11:47AM 42.8519 -78.7394 137° Southeast 200 230 5,900 2,372 Climbing Cleveland Center
11:48AM 42.8525 -78.6433 90° East 212 244 8,900 2,500 Climbing Cleveland Center
11:49AM 42.8506 -78.5386 91° East 256 295 10,900 1,500 Climbing Cleveland Center
11:50AM 42.8483 -78.4111 91° East 298 343 11,900 1,350 Climbing Cleveland Center
11:51AM 42.8456 -78.2697 91° East 345 397 13,600 1,736 Climbing Cleveland Center
11:52AM 42.8425 -78.1197 92° East 375 432 15,400 1,850 Climbing Cleveland Center
11:53AM 42.8392 -77.9642 92° East 397 457 17,300 1,765 Climbing Cleveland Center
11:54AM 42.8356 -77.8114 92° East 403 464 18,900 1,500 Climbing Cleveland Center
11:55AM 42.8317 -77.6528 92° East 408 470 20,300 1,339 Climbing Cleveland Center
11:56AM 42.8314 -77.4858 90° East 418 481 21,600 1,240 Climbing Cleveland Center
11:57AM 42.8247 -77.3219 93° East 424 488 22,800 494 Climbing Cleveland Center
11:59AM 42.8175 -76.9981 92° East 451 519 23,000 71 Climbing Boston Center
12:00PM 42.7572 -76.8408 118° Southeast 446 513 23,000  Level Boston Center
12:01PM 42.7089 -76.6847 113° Southeast 446 513 23,000  Level Boston Center
12:02PM 42.6797 -76.5103 103° East 456 525 23,000  Level Boston Center
12:03PM 42.6525 -76.3392 102° East 461 531 23,000  Level Boston Center
12:04PM 42.6192 -76.1481 103° East 466 536 23,000  Level Boston Center
12:05PM 42.5933 -75.9769 102° East 466 536 23,000  Level Boston Center
12:06PM 42.5633 -75.8006 103° East 466 536 23,000  Level Boston Center
12:07PM 42.5328 -75.6269 103° East 472 543 23,000 -250 Level Boston Center
12:08PM 42.5019 -75.4564 104° East 472 543 22,500 -500 Descending Boston Center
12:09PM 42.4733 -75.2833 103° East 467 537 22,000 -450 Descending Boston Center
12:10PM 42.4250 -75.1236 112° Southeast 467 537 21,600 -500 Descending Boston Center
12:11PM 42.3681 -74.9722 117° Southeast 461 531 21,000 -300 Descending Boston Center
12:12PM 42.3128 -74.8211 116° Southeast 455 524 21,000  Level Boston Center
12:13PM 42.2533 -74.6700 118° Southeast 455 524 21,000 -656 Level Boston Center
12:15PM 42.1383 -74.3522 116° Southeast 450 518 18,900 -1,000 Descending Boston Center
12:16PM 42.0719 -74.1992 120° Southeast 440 506 18,000 -450 Descending Boston Center
12:17PM 42.0031 -74.0661 125° Southeast 433 498 18,000  Level Boston Center
12:18PM 41.9444 -73.9500 124° Southeast 433 498 18,000 -750 Level Boston Center
12:19PM 41.8583 -73.8281 133° Southeast 418 481 16,500 -1,350 Descending Boston Center
12:20PM 41.7542 -73.8231 178° South 396 456 15,300 -1,400 Descending Boston Center
12:21PM 41.6331 -73.8344 184° South 402 463 13,700 -1,650 Descending Boston Center
12:22PM 41.5369 -73.8600 191° South 407 468 12,000 -1,650 Descending Boston Center
12:23PM 41.4333 -73.8667 183° South 320 368 10,400 -1,400 Descending New York TRACON
12:24PM 41.3667 -73.8167 151° Southeast 285 328 9,200 -1,150 Descending New York TRACON
12:25PM 41.3000 -73.7667 151° Southeast 283 326 8,100 -550 Descending New York TRACON
12:26PM 41.2333 -73.7000 143° Southeast 278 320 8,100  Level New York TRACON
12:27PM 41.1667 -73.6500 151° Southeast 279 321 8,100 -500 Level New York TRACON
12:28PM 41.1167 -73.6167 153° Southeast 238 274 7,100 -1,100 Descending New York TRACON
12:29PM 41.0500 -73.6500 201° Southwest 230 265 5,900 -1,250 Descending New York TRACON
12:30PM 41.0000 -73.6833 207° Southwest 219 252 4,600 -900 Descending New York TRACON
12:31PM 40.9500 -73.7333 217° Southwest 190 219 4,100 -450 Descending New York TRACON
12:32PM 40.9167 -73.7667 217° Southwest 183 211 3,700 -1,050 Descending New York TRACON
12:33PM 40.8667 -73.8000 207° Southwest 172 198 2,000 -1,150 Descending New York TRACON
12:34PM 40.8333 -73.8333 217° Southwest 126 145 1,400 -700 Descending New York TRACON
12:35PM 40.8000 -73.8500 201° Southwest 138 159 600 -800 Descending New York TRACON
12:37PM 40.7667 -73.8667 180° South  Level FlightAware Approximate
12:44PM 40.7772 -73.8726 180° South  Level Estimated

Login

Don't have an account? Register now (free) for customized features, flight alerts, and more!